createdAt,value
2022-10-04T05:31:36.132Z,9.65
2022-10-04T05:34:17.435Z,9.68
2022-10-04T05:36:58.778Z,10.43
2022-10-04T05:39:53.406Z,9.27
2022-10-04T05:42:27.097Z,9.85
2022-10-04T05:44:56.713Z,9.65
2022-10-04T05:47:28.985Z,10.93
2022-10-04T05:49:58.713Z,10.45
2022-10-04T05:52:33.451Z,10.40
2022-10-04T05:55:23.564Z,9.45
2022-10-04T05:58:18.510Z,10.95
2022-10-04T06:01:07.136Z,11.57
2022-10-04T06:03:59.739Z,16.45
2022-10-04T06:06:40.964Z,12.87
2022-10-04T06:09:33.509Z,11.32
2022-10-04T06:12:10.788Z,12.63
2022-10-04T06:15:20.829Z,13.57
2022-10-04T06:18:07.267Z,10.88
2022-10-04T06:21:14.640Z,10.32
2022-10-04T06:23:51.308Z,9.82
2022-10-04T06:26:25.022Z,9.05
2022-10-04T06:28:58.110Z,10.88
2022-10-04T06:31:48.691Z,8.77
2022-10-04T06:34:55.836Z,8.27
2022-10-04T06:37:52.575Z,9.00
2022-10-04T06:40:42.620Z,6.22
2022-10-04T06:43:40.504Z,4.63
2022-10-04T06:46:17.546Z,4.10
2022-10-04T06:49:27.167Z,5.00
2022-10-04T06:52:20.708Z,4.45
2022-10-04T07:00:41.564Z,4.60
2022-10-04T07:03:18.079Z,5.15
2022-10-04T07:06:05.160Z,6.30
2022-10-04T07:08:48.002Z,6.90
2022-10-04T07:11:43.563Z,6.30
2022-10-04T07:14:27.554Z,6.60
2022-10-04T07:17:01.253Z,6.47
2022-10-04T07:19:35.167Z,5.93
2022-10-04T07:22:17.670Z,7.15
2022-10-04T07:25:09.622Z,6.40
2022-10-04T07:28:20.127Z,6.53
2022-10-04T07:30:56.145Z,5.47
2022-10-04T07:33:28.224Z,6.15
2022-10-04T07:36:21.894Z,5.33
2022-10-04T07:39:00.445Z,7.38
2022-10-04T07:41:35.597Z,15.52
2022-10-04T07:44:13.717Z,10.00
2022-10-04T07:47:02.781Z,5.95
2022-10-04T07:49:39.637Z,8.02
2022-10-04T07:55:37.039Z,6.00
2022-10-04T07:58:49.021Z,5.82
2022-10-04T08:01:56.604Z,4.25
2022-10-04T08:04:42.023Z,4.55
2022-10-04T08:07:22.181Z,4.43
2022-10-04T08:10:17.728Z,4.43
2022-10-04T08:13:07.779Z,5.15
2022-10-04T08:15:39.313Z,3.92
2022-10-04T08:18:33.003Z,4.63
2022-10-04T08:21:05.455Z,4.53
2022-10-04T08:24:01.715Z,3.67
2022-10-04T08:26:52.654Z,4.80
2022-10-04T08:33:07.964Z,3.35
2022-10-04T08:35:46.492Z,4.35
2022-10-04T08:38:47.593Z,4.20
2022-10-04T08:42:02.818Z,3.60
2022-10-04T08:45:15.805Z,3.22
2022-10-04T08:48:25.316Z,3.22
2022-10-04T08:54:14.096Z,3.47
2022-10-04T08:57:14.991Z,4.13
2022-10-04T09:00:22.514Z,3.78
2022-10-04T09:03:29.815Z,3.13
2022-10-04T09:06:14.000Z,2.67
2022-10-04T09:12:26.368Z,3.08
2022-10-04T09:15:18.750Z,3.30
2022-10-04T09:17:59.062Z,3.23
2022-10-04T09:20:59.248Z,3.30
2022-10-04T09:23:56.396Z,5.60
2022-10-04T09:26:38.943Z,3.88
2022-10-04T09:29:35.197Z,3.15
2022-10-04T09:32:29.943Z,3.10
2022-10-04T09:38:08.547Z,4.53
2022-10-04T09:41:10.468Z,2.92
2022-10-04T09:46:55.702Z,2.45
2022-10-04T09:52:34.606Z,3.10
2022-10-04T09:55:30.796Z,3.08
2022-10-04T09:58:19.087Z,2.20
2022-10-04T10:01:00.023Z,3.22
2022-10-04T10:03:59.411Z,2.20
2022-10-04T10:12:35.730Z,3.40
2022-10-04T10:15:27.858Z,1.85
2022-10-04T10:18:10.310Z,2.17
2022-10-04T10:21:11.531Z,1.67
2022-10-04T10:23:58.019Z,1.08
2022-10-04T10:26:51.348Z,2.20
2022-10-04T10:29:59.568Z,1.20
2022-10-04T10:36:11.679Z,1.70
2022-10-04T10:39:20.374Z,1.30
2022-10-04T10:42:09.479Z,2.00
2022-10-04T10:45:09.610Z,1.13
2022-10-04T10:48:14.797Z,1.75
2022-10-04T10:51:10.522Z,1.20
2022-10-04T10:54:09.568Z,1.23
2022-10-04T10:57:19.777Z,1.45
2022-10-04T11:00:19.300Z,1.58
2022-10-04T11:03:31.139Z,4.40
2022-10-04T11:06:36.469Z,2.00
2022-10-04T11:09:28.861Z,1.70
2022-10-04T11:15:47.474Z,1.50
2022-10-04T11:18:55.209Z,2.05
2022-10-04T11:22:06.920Z,1.60
2022-10-04T11:25:07.462Z,1.23
2022-10-04T11:28:04.477Z,1.40
2022-10-04T11:31:01.806Z,1.45
2022-10-04T11:36:57.424Z,1.25
2022-10-04T11:39:55.425Z,1.88
2022-10-04T11:42:53.810Z,1.48
2022-10-04T11:46:01.796Z,2.67
2022-10-04T11:49:08.972Z,1.35
2022-10-04T11:54:41.175Z,1.67
2022-10-04T11:57:49.539Z,1.63
2022-10-04T12:00:23.132Z,1.45
2022-10-04T12:03:31.362Z,3.20
2022-10-04T12:06:31.451Z,1.20
2022-10-04T12:09:06.794Z,1.55
2022-10-04T12:12:12.287Z,1.58
2022-10-04T12:15:20.849Z,1.50
2022-10-04T12:18:14.062Z,1.17
2022-10-04T12:21:21.515Z,1.65
2022-10-04T12:24:04.431Z,1.35
2022-10-04T12:26:52.703Z,1.20
2022-10-04T12:32:47.123Z,1.42
2022-10-04T12:38:23.645Z,1.50
2022-10-04T12:41:00.622Z,1.63
2022-10-04T12:43:59.239Z,1.08
2022-10-04T12:46:59.877Z,1.10
2022-10-04T12:49:51.470Z,1.38
2022-10-04T12:52:25.534Z,1.40
2022-10-04T12:55:23.759Z,1.20
2022-10-04T12:58:00.474Z,1.13
2022-10-04T13:00:35.638Z,1.05
2022-10-04T13:03:29.538Z,1.58
2022-10-04T13:06:23.848Z,1.60
2022-10-04T13:09:20.387Z,1.20
2022-10-04T13:12:08.422Z,1.80
2022-10-04T13:14:49.205Z,1.10
2022-10-04T13:17:42.337Z,0.80
2022-10-04T13:20:38.042Z,1.30
2022-10-04T13:23:35.316Z,2.10
2022-10-04T13:29:21.507Z,2.85
2022-10-04T13:32:13.085Z,2.30
2022-10-04T13:34:54.804Z,2.00
2022-10-04T13:37:54.625Z,2.38
2022-10-04T13:40:54.277Z,4.60
2022-10-04T13:43:52.147Z,2.20
2022-10-04T13:46:46.943Z,2.17
2022-10-04T13:49:54.005Z,1.77
2022-10-04T13:53:08.930Z,2.28
2022-10-04T13:56:04.778Z,2.42
2022-10-04T13:58:53.637Z,2.80
2022-10-04T14:01:46.887Z,2.50
2022-10-04T14:04:57.550Z,2.05
2022-10-04T14:07:53.085Z,2.40
2022-10-04T14:10:57.521Z,2.47
2022-10-04T14:13:56.591Z,1.92
2022-10-04T14:17:03.804Z,2.78
2022-10-04T14:19:58.298Z,2.90
2022-10-04T14:23:05.479Z,2.05
2022-10-04T14:26:12.566Z,2.70
2022-10-04T14:29:10.721Z,2.28
2022-10-04T14:32:08.374Z,2.35
2022-10-04T14:34:59.763Z,3.25
2022-10-04T14:40:40.490Z,2.65
2022-10-04T14:43:41.379Z,2.30
2022-10-04T14:46:22.867Z,1.90
2022-10-04T14:49:18.587Z,2.67
2022-10-04T14:52:26.048Z,2.33
2022-10-04T14:55:03.866Z,2.38
2022-10-04T14:58:06.493Z,2.10
2022-10-04T15:01:13.668Z,1.98
2022-10-04T15:04:14.071Z,2.63
2022-10-04T15:06:49.266Z,2.80
2022-10-04T15:09:46.952Z,2.20
2022-10-04T15:15:28.216Z,2.25
2022-10-04T15:20:48.624Z,2.03
2022-10-04T15:23:38.423Z,2.33
2022-10-04T15:29:24.236Z,2.15
2022-10-04T15:32:24.374Z,1.85
2022-10-04T15:40:27.769Z,2.78
2022-10-04T15:43:23.618Z,4.90
2022-10-04T15:46:03.355Z,2.53
2022-10-04T15:48:48.014Z,2.60
2022-10-04T15:51:43.160Z,2.63
2022-10-04T15:54:37.291Z,2.83
2022-10-04T15:57:31.484Z,2.22
